Huvudsida
METAR-TAF:

METAR-TAF

Flygplatser :

Sankt Michel, Finland

Sankt Michels flygplats

latitud: 61-44N, longitud: 027-18E, höjd: 138 m

Aktuellt väderrapport

Denna rapport gjordes för 5 minuter sedan, klockan 18:20 UTC
Vind 1 kt från väst
Temperatur -1°C
Fuktighet 80%
Tryck 1016 hPa
Sikt 10 km eller mer
Inga moln under 1 500 m eller inga cumulonimbus

METAR: EFMI 221820Z AUTO 28001KT CAVOK M01/M04 Q1016

Tid: 21:25 (18:25 UTC)


TAF: saknas

Aktuella väderrapporter och prognoser från 4000 flygplatser (METAR- och TAF-rapporter).

De tillgängliga stationerna syns som gula och röda prickar på kartan.

För musen över prickarna för att se namnen på stationerna.

Klicka sedan för att få väderrapporter och prognoser.

För att ändra kartan: Klicka på de gröna knapparna med ett svart kors på för att zooma in; den gröna knappen med ett streck på för att zooma ut; eller på de gröna pilarna för angränsande kartor.


METAR-TAF: